sensor_id;sensor_type;location;lat;lon;timestamp;P1;durP1;ratioP1;P2;durP2;ratioP2
58214;SDS011;44011;52.218;1.480;2024-03-22T00:01:44;4.32;;;2.83;;
58214;SDS011;44011;52.218;1.480;2024-03-22T00:04:09;4.25;;;3.05;;
58214;SDS011;44011;52.218;1.480;2024-03-22T00:06:34;2.85;;;2.55;;
58214;SDS011;44011;52.218;1.480;2024-03-22T00:09:00;5.18;;;2.80;;
58214;SDS011;44011;52.218;1.480;2024-03-22T00:11:25;3.58;;;2.85;;
58214;SDS011;44011;52.218;1.480;2024-03-22T00:13:50;5.75;;;3.80;;
58214;SDS011;44011;52.218;1.480;2024-03-22T00:16:16;3.95;;;3.30;;
58214;SDS011;44011;52.218;1.480;2024-03-22T00:18:41;5.57;;;2.90;;
58214;SDS011;44011;52.218;1.480;2024-03-22T00:21:06;4.40;;;3.53;;
58214;SDS011;44011;52.218;1.480;2024-03-22T00:23:31;5.75;;;3.50;;
58214;SDS011;44011;52.218;1.480;2024-03-22T00:25:57;4.88;;;3.20;;
58214;SDS011;44011;52.218;1.480;2024-03-22T00:28:22;4.77;;;3.40;;
58214;SDS011;44011;52.218;1.480;2024-03-22T00:30:47;6.43;;;3.17;;
58214;SDS011;44011;52.218;1.480;2024-03-22T00:33:12;7.23;;;3.43;;
58214;SDS011;44011;52.218;1.480;2024-03-22T00:35:37;5.90;;;3.70;;
58214;SDS011;44011;52.218;1.480;2024-03-22T00:38:03;8.23;;;3.60;;
58214;SDS011;44011;52.218;1.480;2024-03-22T00:40:28;5.28;;;3.60;;
58214;SDS011;44011;52.218;1.480;2024-03-22T00:42:53;5.75;;;3.00;;
58214;SDS011;44011;52.218;1.480;2024-03-22T00:45:19;4.82;;;3.60;;
58214;SDS011;44011;52.218;1.480;2024-03-22T00:47:45;3.92;;;3.10;;
58214;SDS011;44011;52.218;1.480;2024-03-22T00:50:10;4.07;;;3.10;;
58214;SDS011;44011;52.218;1.480;2024-03-22T00:52:35;5.30;;;3.33;;
58214;SDS011;44011;52.218;1.480;2024-03-22T00:55:00;7.73;;;4.20;;
58214;SDS011;44011;52.218;1.480;2024-03-22T00:57:26;5.72;;;3.70;;
58214;SDS011;44011;52.218;1.480;2024-03-22T00:59:51;5.20;;;3.70;;
58214;SDS011;44011;52.218;1.480;2024-03-22T01:02:16;4.90;;;3.40;;
58214;SDS011;44011;52.218;1.480;2024-03-22T01:04:41;6.82;;;3.83;;
58214;SDS011;44011;52.218;1.480;2024-03-22T01:07:07;5.63;;;4.18;;
58214;SDS011;44011;52.218;1.480;2024-03-22T01:09:32;5.70;;;3.83;;
58214;SDS011;44011;52.218;1.480;2024-03-22T01:11:57;8.27;;;4.53;;
58214;SDS011;44011;52.218;1.480;2024-03-22T01:14:22;7.57;;;4.38;;
58214;SDS011;44011;52.218;1.480;2024-03-22T01:16:48;6.30;;;4.43;;
58214;SDS011;44011;52.218;1.480;2024-03-22T01:19:13;7.03;;;4.72;;
58214;SDS011;44011;52.218;1.480;2024-03-22T01:21:38;8.93;;;4.45;;
58214;SDS011;44011;52.218;1.480;2024-03-22T01:24:03;7.53;;;4.40;;
58214;SDS011;44011;52.218;1.480;2024-03-22T01:26:29;6.80;;;4.35;;
58214;SDS011;44011;52.218;1.480;2024-03-22T01:28:54;6.85;;;4.65;;
58214;SDS011;44011;52.218;1.480;2024-03-22T01:31:19;10.63;;;5.10;;
58214;SDS011;44011;52.218;1.480;2024-03-22T01:33:44;9.48;;;5.70;;
58214;SDS011;44011;52.218;1.480;2024-03-22T01:36:09;10.63;;;6.03;;
58214;SDS011;44011;52.218;1.480;2024-03-22T01:38:35;10.50;;;6.75;;
58214;SDS011;44011;52.218;1.480;2024-03-22T01:41:00;12.48;;;7.15;;
58214;SDS011;44011;52.218;1.480;2024-03-22T01:43:25;11.77;;;7.23;;
58214;SDS011;44011;52.218;1.480;2024-03-22T01:45:50;12.95;;;6.88;;
58214;SDS011;44011;52.218;1.480;2024-03-22T01:48:16;14.35;;;8.40;;
58214;SDS011;44011;52.218;1.480;2024-03-22T01:50:41;14.38;;;8.40;;
58214;SDS011;44011;52.218;1.480;2024-03-22T01:53:08;15.15;;;8.27;;
58214;SDS011;44011;52.218;1.480;2024-03-22T01:55:34;15.52;;;9.85;;
58214;SDS011;44011;52.218;1.480;2024-03-22T01:57:59;14.63;;;9.15;;
58214;SDS011;44011;52.218;1.480;2024-03-22T02:00:24;14.10;;;8.73;;
58214;SDS011;44011;52.218;1.480;2024-03-22T02:02:49;16.85;;;10.05;;
58214;SDS011;44011;52.218;1.480;2024-03-22T02:05:17;16.17;;;10.35;;
58214;SDS011;44011;52.218;1.480;2024-03-22T02:07:46;18.48;;;10.07;;
58214;SDS011;44011;52.218;1.480;2024-03-22T02:10:12;20.50;;;11.52;;
58214;SDS011;44011;52.218;1.480;2024-03-22T02:12:40;17.55;;;9.48;;
58214;SDS011;44011;52.218;1.480;2024-03-22T02:15:05;16.52;;;9.63;;
58214;SDS011;44011;52.218;1.480;2024-03-22T02:17:32;19.40;;;11.57;;
58214;SDS011;44011;52.218;1.480;2024-03-22T02:19:57;18.70;;;10.55;;
58214;SDS011;44011;52.218;1.480;2024-03-22T02:22:22;17.55;;;11.20;;
58214;SDS011;44011;52.218;1.480;2024-03-22T02:24:48;19.00;;;10.15;;
58214;SDS011;44011;52.218;1.480;2024-03-22T02:27:13;15.85;;;10.45;;
58214;SDS011;44011;52.218;1.480;2024-03-22T02:29:38;21.93;;;11.80;;
58214;SDS011;44011;52.218;1.480;2024-03-22T02:32:03;18.80;;;10.57;;
58214;SDS011;44011;52.218;1.480;2024-03-22T02:34:29;23.60;;;11.02;;
58214;SDS011;44011;52.218;1.480;2024-03-22T02:36:54;22.95;;;11.93;;
58214;SDS011;44011;52.218;1.480;2024-03-22T02:39:19;18.37;;;11.40;;
58214;SDS011;44011;52.218;1.480;2024-03-22T02:41:44;19.10;;;10.17;;
58214;SDS011;44011;52.218;1.480;2024-03-22T02:44:09;17.25;;;10.35;;
58214;SDS011;44011;52.218;1.480;2024-03-22T02:46:35;17.03;;;10.37;;
58214;SDS011;44011;52.218;1.480;2024-03-22T02:49:00;16.23;;;10.57;;
58214;SDS011;44011;52.218;1.480;2024-03-22T02:51:25;19.20;;;11.13;;
58214;SDS011;44011;52.218;1.480;2024-03-22T02:53:50;16.25;;;10.32;;
58214;SDS011;44011;52.218;1.480;2024-03-22T02:56:15;19.10;;;11.00;;
58214;SDS011;44011;52.218;1.480;2024-03-22T02:58:41;18.52;;;11.00;;
58214;SDS011;44011;52.218;1.480;2024-03-22T03:01:06;19.20;;;11.63;;
58214;SDS011;44011;52.218;1.480;2024-03-22T03:03:31;18.15;;;10.02;;
58214;SDS011;44011;52.218;1.480;2024-03-22T03:05:57;17.20;;;10.43;;
58214;SDS011;44011;52.218;1.480;2024-03-22T03:08:22;17.63;;;9.98;;
58214;SDS011;44011;52.218;1.480;2024-03-22T03:10:47;17.75;;;9.57;;
58214;SDS011;44011;52.218;1.480;2024-03-22T03:13:12;15.07;;;9.40;;
58214;SDS011;44011;52.218;1.480;2024-03-22T03:15:38;15.18;;;9.13;;
58214;SDS011;44011;52.218;1.480;2024-03-22T03:18:03;16.55;;;8.85;;
58214;SDS011;44011;52.218;1.480;2024-03-22T03:20:28;20.45;;;10.00;;
58214;SDS011;44011;52.218;1.480;2024-03-22T03:22:54;14.52;;;9.00;;
58214;SDS011;44011;52.218;1.480;2024-03-22T03:25:20;14.02;;;8.60;;
58214;SDS011;44011;52.218;1.480;2024-03-22T03:27:45;13.32;;;8.48;;
58214;SDS011;44011;52.218;1.480;2024-03-22T03:30:10;15.80;;;8.87;;
58214;SDS011;44011;52.218;1.480;2024-03-22T03:32:36;13.50;;;7.80;;
58214;SDS011;44011;52.218;1.480;2024-03-22T03:35:01;13.48;;;7.70;;
58214;SDS011;44011;52.218;1.480;2024-03-22T03:37:26;14.18;;;7.93;;
58214;SDS011;44011;52.218;1.480;2024-03-22T03:39:51;11.50;;;6.87;;
58214;SDS011;44011;52.218;1.480;2024-03-22T03:42:17;11.45;;;7.05;;
58214;SDS011;44011;52.218;1.480;2024-03-22T03:44:42;14.18;;;9.00;;
58214;SDS011;44011;52.218;1.480;2024-03-22T03:47:07;11.93;;;7.57;;
58214;SDS011;44011;52.218;1.480;2024-03-22T03:49:33;14.52;;;7.97;;
58214;SDS011;44011;52.218;1.480;2024-03-22T03:51:58;13.75;;;8.02;;
58214;SDS011;44011;52.218;1.480;2024-03-22T03:54:23;13.23;;;7.00;;
58214;SDS011;44011;52.218;1.480;2024-03-22T03:56:48;11.40;;;7.22;;
58214;SDS011;44011;52.218;1.480;2024-03-22T03:59:14;13.65;;;8.30;;
58214;SDS011;44011;52.218;1.480;2024-03-22T04:01:39;13.05;;;7.97;;
58214;SDS011;44011;52.218;1.480;2024-03-22T04:04:04;15.13;;;7.68;;
58214;SDS011;44011;52.218;1.480;2024-03-22T04:06:29;12.13;;;7.60;;
58214;SDS011;44011;52.218;1.480;2024-03-22T04:08:54;12.52;;;7.55;;
58214;SDS011;44011;52.218;1.480;2024-03-22T04:11:20;16.33;;;7.57;;
58214;SDS011;44011;52.218;1.480;2024-03-22T04:13:45;12.27;;;6.72;;
58214;SDS011;44011;52.218;1.480;2024-03-22T04:16:10;11.23;;;6.43;;
58214;SDS011;44011;52.218;1.480;2024-03-22T04:18:35;13.25;;;7.55;;
58214;SDS011;44011;52.218;1.480;2024-03-22T04:21:00;12.13;;;6.75;;
58214;SDS011;44011;52.218;1.480;2024-03-22T04:23:26;12.13;;;6.75;;
58214;SDS011;44011;52.218;1.480;2024-03-22T04:25:52;13.93;;;7.30;;
58214;SDS011;44011;52.218;1.480;2024-03-22T04:28:17;11.77;;;6.75;;
58214;SDS011;44011;52.218;1.480;2024-03-22T04:30:43;15.27;;;6.95;;
58214;SDS011;44011;52.218;1.480;2024-03-22T04:33:08;10.50;;;6.53;;
58214;SDS011;44011;52.218;1.480;2024-03-22T04:35:33;13.63;;;7.85;;
58214;SDS011;44011;52.218;1.480;2024-03-22T04:37:58;13.00;;;7.82;;
58214;SDS011;44011;52.218;1.480;2024-03-22T04:40:24;13.10;;;7.43;;
58214;SDS011;44011;52.218;1.480;2024-03-22T04:42:49;12.02;;;7.18;;
58214;SDS011;44011;52.218;1.480;2024-03-22T04:45:15;14.38;;;7.90;;
58214;SDS011;44011;52.218;1.480;2024-03-22T04:47:40;13.10;;;7.82;;
58214;SDS011;44011;52.218;1.480;2024-03-22T04:50:05;13.75;;;7.88;;
58214;SDS011;44011;52.218;1.480;2024-03-22T04:52:31;9.48;;;6.88;;
58214;SDS011;44011;52.218;1.480;2024-03-22T04:54:56;13.55;;;7.95;;
58214;SDS011;44011;52.218;1.480;2024-03-22T04:57:21;13.35;;;8.15;;
58214;SDS011;44011;52.218;1.480;2024-03-22T04:59:46;13.07;;;7.22;;
58214;SDS011;44011;52.218;1.480;2024-03-22T05:02:12;12.80;;;7.17;;
58214;SDS011;44011;52.218;1.480;2024-03-22T05:04:37;13.75;;;7.13;;
58214;SDS011;44011;52.218;1.480;2024-03-22T05:07:02;10.77;;;7.47;;
58214;SDS011;44011;52.218;1.480;2024-03-22T05:09:28;13.02;;;7.43;;
58214;SDS011;44011;52.218;1.480;2024-03-22T05:11:53;9.82;;;6.85;;
58214;SDS011;44011;52.218;1.480;2024-03-22T05:14:19;13.20;;;7.85;;
58214;SDS011;44011;52.218;1.480;2024-03-22T05:16:44;12.00;;;7.03;;
58214;SDS011;44011;52.218;1.480;2024-03-22T05:19:09;12.63;;;7.15;;
58214;SDS011;44011;52.218;1.480;2024-03-22T05:21:34;15.20;;;7.93;;
58214;SDS011;44011;52.218;1.480;2024-03-22T05:24:00;15.45;;;8.07;;
58214;SDS011;44011;52.218;1.480;2024-03-22T05:26:25;13.70;;;7.70;;
58214;SDS011;44011;52.218;1.480;2024-03-22T05:28:50;16.42;;;7.97;;
58214;SDS011;44011;52.218;1.480;2024-03-22T05:31:15;11.65;;;7.18;;
58214;SDS011;44011;52.218;1.480;2024-03-22T05:33:41;16.35;;;7.47;;
58214;SDS011;44011;52.218;1.480;2024-03-22T05:36:06;11.98;;;7.43;;
58214;SDS011;44011;52.218;1.480;2024-03-22T05:38:32;10.73;;;6.82;;
58214;SDS011;44011;52.218;1.480;2024-03-22T05:40:57;11.75;;;7.30;;
58214;SDS011;44011;52.218;1.480;2024-03-22T05:43:22;14.07;;;7.97;;
58214;SDS011;44011;52.218;1.480;2024-03-22T05:45:47;12.10;;;7.95;;
58214;SDS011;44011;52.218;1.480;2024-03-22T05:48:13;12.98;;;7.50;;
58214;SDS011;44011;52.218;1.480;2024-03-22T05:50:38;15.15;;;8.07;;
58214;SDS011;44011;52.218;1.480;2024-03-22T05:53:03;13.50;;;7.18;;
58214;SDS011;44011;52.218;1.480;2024-03-22T05:55:29;14.02;;;7.57;;
58214;SDS011;44011;52.218;1.480;2024-03-22T05:57:56;10.18;;;6.75;;
58214;SDS011;44011;52.218;1.480;2024-03-22T06:00:21;13.65;;;7.70;;
58214;SDS011;44011;52.218;1.480;2024-03-22T06:02:46;13.65;;;8.23;;
58214;SDS011;44011;52.218;1.480;2024-03-22T06:05:12;12.63;;;7.53;;
58214;SDS011;44011;52.218;1.480;2024-03-22T06:07:37;11.55;;;7.18;;
58214;SDS011;44011;52.218;1.480;2024-03-22T06:10:07;10.85;;;6.55;;
58214;SDS011;44011;52.218;1.480;2024-03-22T06:12:33;13.88;;;8.00;;
58214;SDS011;44011;52.218;1.480;2024-03-22T06:14:58;14.10;;;6.72;;
58214;SDS011;44011;52.218;1.480;2024-03-22T06:17:23;11.40;;;6.73;;
58214;SDS011;44011;52.218;1.480;2024-03-22T06:19:49;11.10;;;7.00;;
58214;SDS011;44011;52.218;1.480;2024-03-22T06:22:14;12.75;;;7.18;;
58214;SDS011;44011;52.218;1.480;2024-03-22T06:24:39;11.82;;;6.97;;
58214;SDS011;44011;52.218;1.480;2024-03-22T06:27:05;10.48;;;7.18;;
58214;SDS011;44011;52.218;1.480;2024-03-22T06:29:30;11.93;;;6.20;;
58214;SDS011;44011;52.218;1.480;2024-03-22T06:31:55;9.10;;;6.40;;
58214;SDS011;44011;52.218;1.480;2024-03-22T06:34:20;12.10;;;7.75;;
58214;SDS011;44011;52.218;1.480;2024-03-22T06:36:46;10.40;;;7.10;;
58214;SDS011;44011;52.218;1.480;2024-03-22T06:39:12;10.95;;;6.95;;
58214;SDS011;44011;52.218;1.480;2024-03-22T06:41:37;12.75;;;7.13;;
58214;SDS011;44011;52.218;1.480;2024-03-22T06:44:02;16.33;;;7.65;;
58214;SDS011;44011;52.218;1.480;2024-03-22T06:46:28;10.77;;;6.95;;
58214;SDS011;44011;52.218;1.480;2024-03-22T06:48:53;12.82;;;7.00;;
58214;SDS011;44011;52.218;1.480;2024-03-22T06:51:18;10.00;;;6.60;;
58214;SDS011;44011;52.218;1.480;2024-03-22T06:53:43;13.48;;;6.88;;
58214;SDS011;44011;52.218;1.480;2024-03-22T06:56:10;12.55;;;6.25;;
58214;SDS011;44011;52.218;1.480;2024-03-22T06:58:36;12.20;;;6.85;;
58214;SDS011;44011;52.218;1.480;2024-03-22T07:01:02;11.18;;;6.97;;
58214;SDS011;44011;52.218;1.480;2024-03-22T07:03:27;11.15;;;7.20;;
58214;SDS011;44011;52.218;1.480;2024-03-22T07:05:52;11.60;;;7.45;;
58214;SDS011;44011;52.218;1.480;2024-03-22T07:08:17;13.93;;;8.55;;
58214;SDS011;44011;52.218;1.480;2024-03-22T07:10:43;11.60;;;6.47;;
58214;SDS011;44011;52.218;1.480;2024-03-22T07:13:10;10.43;;;6.95;;
58214;SDS011;44011;52.218;1.480;2024-03-22T07:15:35;12.55;;;7.15;;
58214;SDS011;44011;52.218;1.480;2024-03-22T07:18:00;9.98;;;6.85;;
58214;SDS011;44011;52.218;1.480;2024-03-22T07:20:25;11.63;;;7.03;;
58214;SDS011;44011;52.218;1.480;2024-03-22T07:22:51;14.57;;;7.57;;
58214;SDS011;44011;52.218;1.480;2024-03-22T07:25:16;14.70;;;7.93;;
58214;SDS011;44011;52.218;1.480;2024-03-22T07:27:41;11.60;;;6.72;;
58214;SDS011;44011;52.218;1.480;2024-03-22T07:30:07;12.18;;;6.95;;
58214;SDS011;44011;52.218;1.480;2024-03-22T07:32:32;11.88;;;7.05;;
58214;SDS011;44011;52.218;1.480;2024-03-22T07:34:57;10.77;;;6.65;;
58214;SDS011;44011;52.218;1.480;2024-03-22T07:37:23;11.60;;;6.90;;
58214;SDS011;44011;52.218;1.480;2024-03-22T07:39:48;12.35;;;6.30;;
58214;SDS011;44011;52.218;1.480;2024-03-22T07:42:13;18.52;;;7.35;;
58214;SDS011;44011;52.218;1.480;2024-03-22T07:44:38;10.70;;;6.63;;
58214;SDS011;44011;52.218;1.480;2024-03-22T07:47:04;12.95;;;7.53;;
58214;SDS011;44011;52.218;1.480;2024-03-22T07:49:29;10.73;;;7.10;;
58214;SDS011;44011;52.218;1.480;2024-03-22T07:51:54;13.60;;;6.70;;
58214;SDS011;44011;52.218;1.480;2024-03-22T07:54:19;10.82;;;6.45;;
58214;SDS011;44011;52.218;1.480;2024-03-22T07:56:45;14.68;;;6.90;;
58214;SDS011;44011;52.218;1.480;2024-03-22T07:59:11;11.95;;;6.38;;
58214;SDS011;44011;52.218;1.480;2024-03-22T08:01:36;10.88;;;6.53;;
58214;SDS011;44011;52.218;1.480;2024-03-22T08:04:01;9.60;;;6.20;;
58214;SDS011;44011;52.218;1.480;2024-03-22T08:06:26;10.80;;;6.43;;
58214;SDS011;44011;52.218;1.480;2024-03-22T08:08:51;12.77;;;7.60;;
58214;SDS011;44011;52.218;1.480;2024-03-22T08:11:17;11.27;;;7.68;;
58214;SDS011;44011;52.218;1.480;2024-03-22T08:13:42;12.82;;;7.40;;
58214;SDS011;44011;52.218;1.480;2024-03-22T08:16:07;12.25;;;6.35;;
58214;SDS011;44011;52.218;1.480;2024-03-22T08:18:32;8.63;;;6.55;;
58214;SDS011;44011;52.218;1.480;2024-03-22T08:20:58;12.02;;;6.05;;
58214;SDS011;44011;52.218;1.480;2024-03-22T08:23:24;12.93;;;6.80;;
58214;SDS011;44011;52.218;1.480;2024-03-22T08:25:49;11.45;;;6.30;;
58214;SDS011;44011;52.218;1.480;2024-03-22T08:28:14;8.27;;;5.97;;
58214;SDS011;44011;52.218;1.480;2024-03-22T08:30:40;12.88;;;7.32;;
58214;SDS011;44011;52.218;1.480;2024-03-22T08:33:07;8.32;;;6.05;;
58214;SDS011;44011;52.218;1.480;2024-03-22T08:35:32;12.68;;;7.05;;
58214;SDS011;44011;52.218;1.480;2024-03-22T08:37:57;10.17;;;6.40;;
58214;SDS011;44011;52.218;1.480;2024-03-22T08:40:23;8.60;;;5.53;;
58214;SDS011;44011;52.218;1.480;2024-03-22T08:42:48;19.77;;;6.47;;
58214;SDS011;44011;52.218;1.480;2024-03-22T08:45:14;15.82;;;11.82;;
58214;SDS011;44011;52.218;1.480;2024-03-22T08:47:39;69.65;;;55.45;;
58214;SDS011;44011;52.218;1.480;2024-03-22T08:50:05;29.17;;;20.80;;
58214;SDS011;44011;52.218;1.480;2024-03-22T08:52:30;12.10;;;9.55;;
58214;SDS011;44011;52.218;1.480;2024-03-22T08:54:57;9.10;;;4.97;;
58214;SDS011;44011;52.218;1.480;2024-03-22T08:57:22;6.80;;;4.20;;
58214;SDS011;44011;52.218;1.480;2024-03-22T08:59:47;7.80;;;4.78;;
58214;SDS011;44011;52.218;1.480;2024-03-22T09:02:12;8.63;;;4.70;;
58214;SDS011;44011;52.218;1.480;2024-03-22T09:04:38;10.82;;;6.85;;
58214;SDS011;44011;52.218;1.480;2024-03-22T09:07:03;12.60;;;7.30;;
58214;SDS011;44011;52.218;1.480;2024-03-22T09:09:29;8.43;;;5.47;;
58214;SDS011;44011;52.218;1.480;2024-03-22T09:11:54;7.55;;;5.03;;
58214;SDS011;44011;52.218;1.480;2024-03-22T09:14:19;10.05;;;6.03;;
58214;SDS011;44011;52.218;1.480;2024-03-22T09:16:45;10.70;;;5.88;;
58214;SDS011;44011;52.218;1.480;2024-03-22T09:19:10;10.63;;;5.57;;
58214;SDS011;44011;52.218;1.480;2024-03-22T09:21:36;7.60;;;4.43;;
58214;SDS011;44011;52.218;1.480;2024-03-22T09:24:01;6.72;;;3.92;;
58214;SDS011;44011;52.218;1.480;2024-03-22T09:26:28;11.95;;;4.78;;
58214;SDS011;44011;52.218;1.480;2024-03-22T09:28:53;10.48;;;3.92;;
58214;SDS011;44011;52.218;1.480;2024-03-22T09:31:18;15.05;;;4.18;;
58214;SDS011;44011;52.218;1.480;2024-03-22T09:33:43;10.23;;;4.43;;
58214;SDS011;44011;52.218;1.480;2024-03-22T09:36:09;8.32;;;4.03;;
58214;SDS011;44011;52.218;1.480;2024-03-22T09:38:34;10.90;;;3.83;;
58214;SDS011;44011;52.218;1.480;2024-03-22T09:41:00;6.28;;;3.50;;
58214;SDS011;44011;52.218;1.480;2024-03-22T09:43:26;11.68;;;3.90;;
58214;SDS011;44011;52.218;1.480;2024-03-22T09:45:52;9.15;;;3.40;;
58214;SDS011;44011;52.218;1.480;2024-03-22T09:48:17;8.68;;;3.05;;
58214;SDS011;44011;52.218;1.480;2024-03-22T09:50:43;4.78;;;3.03;;
58214;SDS011;44011;52.218;1.480;2024-03-22T09:53:09;10.52;;;3.53;;
58214;SDS011;44011;52.218;1.480;2024-03-22T09:55:34;7.72;;;3.25;;
58214;SDS011;44011;52.218;1.480;2024-03-22T09:58:01;10.77;;;4.30;;
58214;SDS011;44011;52.218;1.480;2024-03-22T10:00:27;15.35;;;3.90;;
58214;SDS011;44011;52.218;1.480;2024-03-22T10:02:52;8.57;;;3.25;;
58214;SDS011;44011;52.218;1.480;2024-03-22T10:05:18;9.63;;;3.83;;
58214;SDS011;44011;52.218;1.480;2024-03-22T10:07:44;16.92;;;4.28;;
58214;SDS011;44011;52.218;1.480;2024-03-22T10:10:09;9.05;;;2.90;;
58214;SDS011;44011;52.218;1.480;2024-03-22T10:12:35;7.75;;;3.00;;
58214;SDS011;44011;52.218;1.480;2024-03-22T10:15:00;8.45;;;3.30;;
58214;SDS011;44011;52.218;1.480;2024-03-22T10:17:29;9.18;;;2.78;;
58214;SDS011;44011;52.218;1.480;2024-03-22T10:19:54;9.52;;;2.83;;
58214;SDS011;44011;52.218;1.480;2024-03-22T10:22:19;8.45;;;3.22;;
58214;SDS011;44011;52.218;1.480;2024-03-22T10:24:45;13.87;;;3.53;;
58214;SDS011;44011;52.218;1.480;2024-03-22T10:27:10;11.27;;;3.60;;
58214;SDS011;44011;52.218;1.480;2024-03-22T10:29:36;14.98;;;3.35;;
58214;SDS011;44011;52.218;1.480;2024-03-22T10:32:01;10.25;;;2.97;;
58214;SDS011;44011;52.218;1.480;2024-03-22T10:34:27;9.70;;;3.55;;
58214;SDS011;44011;52.218;1.480;2024-03-22T10:36:53;12.43;;;3.75;;
58214;SDS011;44011;52.218;1.480;2024-03-22T10:39:20;15.48;;;3.22;;
58214;SDS011;44011;52.218;1.480;2024-03-22T10:41:46;11.77;;;2.97;;
58214;SDS011;44011;52.218;1.480;2024-03-22T10:44:12;11.70;;;3.33;;
58214;SDS011;44011;52.218;1.480;2024-03-22T10:46:37;10.50;;;3.05;;
58214;SDS011;44011;52.218;1.480;2024-03-22T10:49:03;13.23;;;3.13;;
58214;SDS011;44011;52.218;1.480;2024-03-22T10:51:30;12.48;;;2.88;;
58214;SDS011;44011;52.218;1.480;2024-03-22T10:53:56;13.90;;;3.72;;
58214;SDS011;44011;52.218;1.480;2024-03-22T10:56:22;12.27;;;3.15;;
58214;SDS011;44011;52.218;1.480;2024-03-22T10:58:48;14.30;;;3.03;;
58214;SDS011;44011;52.218;1.480;2024-03-22T11:01:21;12.35;;;2.92;;
58214;SDS011;44011;52.218;1.480;2024-03-22T11:03:47;10.32;;;2.92;;
58214;SDS011;44011;52.218;1.480;2024-03-22T11:06:12;11.32;;;3.13;;
58214;SDS011;44011;52.218;1.480;2024-03-22T11:08:37;11.25;;;3.35;;
58214;SDS011;44011;52.218;1.480;2024-03-22T11:11:12;11.30;;;3.35;;
58214;SDS011;44011;52.218;1.480;2024-03-22T11:13:38;18.33;;;4.07;;
58214;SDS011;44011;52.218;1.480;2024-03-22T11:16:04;17.25;;;3.20;;
58214;SDS011;44011;52.218;1.480;2024-03-22T11:18:29;11.45;;;3.42;;
58214;SDS011;44011;52.218;1.480;2024-03-22T11:20:54;13.10;;;3.60;;
58214;SDS011;44011;52.218;1.480;2024-03-22T11:23:20;18.23;;;3.70;;
58214;SDS011;44011;52.218;1.480;2024-03-22T11:25:45;15.32;;;3.33;;
58214;SDS011;44011;52.218;1.480;2024-03-22T11:28:11;10.18;;;2.78;;
58214;SDS011;44011;52.218;1.480;2024-03-22T11:30:37;17.67;;;3.88;;
58214;SDS011;44011;52.218;1.480;2024-03-22T11:33:02;10.75;;;4.30;;
58214;SDS011;44011;52.218;1.480;2024-03-22T11:35:28;12.85;;;5.15;;
58214;SDS011;44011;52.218;1.480;2024-03-22T11:37:53;12.15;;;3.65;;
58214;SDS011;44011;52.218;1.480;2024-03-22T11:40:18;20.45;;;4.95;;
58214;SDS011;44011;52.218;1.480;2024-03-22T11:42:45;12.38;;;3.45;;
58214;SDS011;44011;52.218;1.480;2024-03-22T11:45:11;17.85;;;4.72;;
58214;SDS011;44011;52.218;1.480;2024-03-22T11:47:38;15.43;;;3.50;;
58214;SDS011;44011;52.218;1.480;2024-03-22T11:50:03;16.55;;;3.20;;
58214;SDS011;44011;52.218;1.480;2024-03-22T11:52:29;11.48;;;4.05;;
58214;SDS011;44011;52.218;1.480;2024-03-22T11:54:54;10.57;;;3.35;;
58214;SDS011;44011;52.218;1.480;2024-03-22T11:57:22;19.30;;;3.70;;
58214;SDS011;44011;52.218;1.480;2024-03-22T11:59:48;14.32;;;4.68;;
58214;SDS011;44011;52.218;1.480;2024-03-22T12:02:14;11.98;;;3.22;;
58214;SDS011;44011;52.218;1.480;2024-03-22T12:04:40;13.85;;;3.03;;
58214;SDS011;44011;52.218;1.480;2024-03-22T12:07:05;14.30;;;4.40;;
58214;SDS011;44011;52.218;1.480;2024-03-22T12:09:33;10.02;;;2.30;;
58214;SDS011;44011;52.218;1.480;2024-03-22T12:11:59;12.05;;;3.33;;
58214;SDS011;44011;52.218;1.480;2024-03-22T12:14:24;11.60;;;3.85;;
58214;SDS011;44011;52.218;1.480;2024-03-22T12:16:49;15.10;;;3.45;;
58214;SDS011;44011;52.218;1.480;2024-03-22T12:19:14;10.90;;;3.30;;
58214;SDS011;44011;52.218;1.480;2024-03-22T12:21:39;15.03;;;3.20;;
58214;SDS011;44011;52.218;1.480;2024-03-22T12:24:05;12.60;;;3.30;;
58214;SDS011;44011;52.218;1.480;2024-03-22T12:26:30;10.23;;;2.78;;
58214;SDS011;44011;52.218;1.480;2024-03-22T12:28:57;11.30;;;3.57;;
58214;SDS011;44011;52.218;1.480;2024-03-22T12:31:22;9.20;;;2.90;;
58214;SDS011;44011;52.218;1.480;2024-03-22T12:33:47;11.75;;;3.05;;
58214;SDS011;44011;52.218;1.480;2024-03-22T12:36:12;8.87;;;3.13;;
58214;SDS011;44011;52.218;1.480;2024-03-22T12:38:37;13.57;;;2.50;;
58214;SDS011;44011;52.218;1.480;2024-03-22T12:41:03;11.77;;;3.13;;
58214;SDS011;44011;52.218;1.480;2024-03-22T12:43:28;10.15;;;2.22;;
58214;SDS011;44011;52.218;1.480;2024-03-22T12:45:53;7.97;;;2.30;;
58214;SDS011;44011;52.218;1.480;2024-03-22T12:48:19;20.20;;;3.17;;
58214;SDS011;44011;52.218;1.480;2024-03-22T12:50:44;7.32;;;2.17;;
58214;SDS011;44011;52.218;1.480;2024-03-22T12:53:09;6.57;;;1.98;;
58214;SDS011;44011;52.218;1.480;2024-03-22T12:55:34;9.60;;;2.40;;
58214;SDS011;44011;52.218;1.480;2024-03-22T12:58:00;7.85;;;2.45;;
58214;SDS011;44011;52.218;1.480;2024-03-22T13:00:25;5.70;;;2.25;;
58214;SDS011;44011;52.218;1.480;2024-03-22T13:02:50;8.02;;;3.05;;
58214;SDS011;44011;52.218;1.480;2024-03-22T13:05:15;10.55;;;2.50;;
58214;SDS011;44011;52.218;1.480;2024-03-22T13:07:41;12.95;;;2.30;;
58214;SDS011;44011;52.218;1.480;2024-03-22T13:10:07;10.55;;;2.72;;
58214;SDS011;44011;52.218;1.480;2024-03-22T13:12:33;6.85;;;3.22;;
58214;SDS011;44011;52.218;1.480;2024-03-22T13:14:59;9.98;;;2.45;;
58214;SDS011;44011;52.218;1.480;2024-03-22T13:17:24;6.22;;;2.13;;
58214;SDS011;44011;52.218;1.480;2024-03-22T13:19:50;6.43;;;2.30;;
58214;SDS011;44011;52.218;1.480;2024-03-22T13:22:15;10.20;;;2.42;;
58214;SDS011;44011;52.218;1.480;2024-03-22T13:24:43;13.93;;;3.17;;
58214;SDS011;44011;52.218;1.480;2024-03-22T13:27:08;13.35;;;4.03;;
58214;SDS011;44011;52.218;1.480;2024-03-22T13:29:34;7.88;;;2.50;;
58214;SDS011;44011;52.218;1.480;2024-03-22T13:31:59;15.33;;;3.20;;
58214;SDS011;44011;52.218;1.480;2024-03-22T13:34:24;10.80;;;2.67;;
58214;SDS011;44011;52.218;1.480;2024-03-22T13:36:51;7.35;;;2.83;;
58214;SDS011;44011;52.218;1.480;2024-03-22T13:39:16;8.10;;;3.22;;
58214;SDS011;44011;52.218;1.480;2024-03-22T13:41:42;13.33;;;2.93;;
58214;SDS011;44011;52.218;1.480;2024-03-22T13:44:07;9.20;;;3.87;;
58214;SDS011;44011;52.218;1.480;2024-03-22T13:46:33;11.07;;;3.25;;
58214;SDS011;44011;52.218;1.480;2024-03-22T13:49:01;8.85;;;2.67;;
58214;SDS011;44011;52.218;1.480;2024-03-22T13:51:26;8.70;;;3.40;;
58214;SDS011;44011;52.218;1.480;2024-03-22T13:53:54;13.07;;;2.80;;
58214;SDS011;44011;52.218;1.480;2024-03-22T13:56:20;9.45;;;2.78;;
58214;SDS011;44011;52.218;1.480;2024-03-22T13:58:45;10.50;;;3.40;;
58214;SDS011;44011;52.218;1.480;2024-03-22T14:01:10;8.47;;;3.70;;
58214;SDS011;44011;52.218;1.480;2024-03-22T14:03:36;7.40;;;2.75;;
58214;SDS011;44011;52.218;1.480;2024-03-22T14:06:01;11.48;;;2.60;;
58214;SDS011;44011;52.218;1.480;2024-03-22T14:08:27;7.97;;;2.17;;
58214;SDS011;44011;52.218;1.480;2024-03-22T14:10:53;9.05;;;2.30;;
58214;SDS011;44011;52.218;1.480;2024-03-22T14:13:18;7.27;;;2.37;;
58214;SDS011;44011;52.218;1.480;2024-03-22T14:15:43;6.60;;;2.20;;
58214;SDS011;44011;52.218;1.480;2024-03-22T14:18:09;9.65;;;3.78;;
58214;SDS011;44011;52.218;1.480;2024-03-22T14:20:34;10.02;;;2.20;;
58214;SDS011;44011;52.218;1.480;2024-03-22T14:22:59;9.57;;;2.67;;
58214;SDS011;44011;52.218;1.480;2024-03-22T14:25:25;6.60;;;2.53;;
58214;SDS011;44011;52.218;1.480;2024-03-22T14:27:52;12.63;;;2.88;;